sensor_id;sensor_type;location;lat;lon;timestamp;temperature;humidity
810;DHT22;387;48.772;9.186;2023-02-26T00:00:22;1.50;75.10
810;DHT22;387;48.772;9.186;2023-02-26T00:02:47;1.40;74.50
810;DHT22;387;48.772;9.186;2023-02-26T00:05:14;1.40;75.20
810;DHT22;387;48.772;9.186;2023-02-26T00:07:41;1.40;75.40
810;DHT22;387;48.772;9.186;2023-02-26T00:10:09;1.40;74.90
810;DHT22;387;48.772;9.186;2023-02-26T00:12:35;1.30;75.20
810;DHT22;387;48.772;9.186;2023-02-26T00:15:02;1.30;75.10
810;DHT22;387;48.772;9.186;2023-02-26T00:17:39;1.30;75.40
810;DHT22;387;48.772;9.186;2023-02-26T00:20:06;1.30;75.40
810;DHT22;387;48.772;9.186;2023-02-26T00:22:33;1.30;75.10
810;DHT22;387;48.772;9.186;2023-02-26T00:24:59;1.30;75.40
810;DHT22;387;48.772;9.186;2023-02-26T00:27:24;1.30;75.50
810;DHT22;387;48.772;9.186;2023-02-26T00:29:50;1.20;74.60
810;DHT22;387;48.772;9.186;2023-02-26T00:32:16;1.10;74.50
810;DHT22;387;48.772;9.186;2023-02-26T00:34:46;1.00;74.60
810;DHT22;387;48.772;9.186;2023-02-26T00:40:20;1.00;75.10
810;DHT22;387;48.772;9.186;2023-02-26T00:42:47;1.00;74.90
810;DHT22;387;48.772;9.186;2023-02-26T00:45:13;1.00;74.80
810;DHT22;387;48.772;9.186;2023-02-26T00:48:06;1.00;75.20
810;DHT22;387;48.772;9.186;2023-02-26T00:50:42;1.00;75.40
810;DHT22;387;48.772;9.186;2023-02-26T00:53:21;0.90;75.50
810;DHT22;387;48.772;9.186;2023-02-26T00:55:49;0.90;75.70
810;DHT22;387;48.772;9.186;2023-02-26T00:58:15;0.90;75.80
810;DHT22;387;48.772;9.186;2023-02-26T01:00:40;0.90;75.80
810;DHT22;387;48.772;9.186;2023-02-26T01:03:06;0.90;75.90
810;DHT22;387;48.772;9.186;2023-02-26T01:05:32;0.90;75.90
810;DHT22;387;48.772;9.186;2023-02-26T01:08:03;0.90;75.90
810;DHT22;387;48.772;9.186;2023-02-26T01:10:30;0.90;75.70
810;DHT22;387;48.772;9.186;2023-02-26T01:12:56;0.90;75.90
810;DHT22;387;48.772;9.186;2023-02-26T01:15:24;0.90;75.90
810;DHT22;387;48.772;9.186;2023-02-26T01:18:01;0.90;75.70
810;DHT22;387;48.772;9.186;2023-02-26T01:20:55;0.90;75.70
810;DHT22;387;48.772;9.186;2023-02-26T01:23:26;0.90;75.70
810;DHT22;387;48.772;9.186;2023-02-26T01:26:05;0.80;75.50
810;DHT22;387;48.772;9.186;2023-02-26T01:28:32;0.80;75.20
810;DHT22;387;48.772;9.186;2023-02-26T01:31:01;0.80;75.50
810;DHT22;387;48.772;9.186;2023-02-26T01:33:39;0.70;75.20
810;DHT22;387;48.772;9.186;2023-02-26T01:36:21;0.70;75.50
810;DHT22;387;48.772;9.186;2023-02-26T01:41:57;0.60;75.90
810;DHT22;387;48.772;9.186;2023-02-26T01:44:58;0.50;75.70
810;DHT22;387;48.772;9.186;2023-02-26T01:47:45;0.40;75.90
810;DHT22;387;48.772;9.186;2023-02-26T01:50:18;0.40;76.20
810;DHT22;387;48.772;9.186;2023-02-26T01:55:19;0.30;76.50
810;DHT22;387;48.772;9.186;2023-02-26T01:57:46;0.40;76.50
810;DHT22;387;48.772;9.186;2023-02-26T02:00:13;0.30;76.80
810;DHT22;387;48.772;9.186;2023-02-26T02:02:40;0.30;76.80
810;DHT22;387;48.772;9.186;2023-02-26T02:05:12;0.30;76.80
810;DHT22;387;48.772;9.186;2023-02-26T02:07:39;0.30;76.40
810;DHT22;387;48.772;9.186;2023-02-26T02:10:06;0.20;76.20
810;DHT22;387;48.772;9.186;2023-02-26T02:12:40;0.20;76.40
810;DHT22;387;48.772;9.186;2023-02-26T02:15:18;0.10;76.20
810;DHT22;387;48.772;9.186;2023-02-26T02:23:09;0.00;76.70
810;DHT22;387;48.772;9.186;2023-02-26T02:36:40;0.00;77.10
810;DHT22;387;48.772;9.186;2023-02-26T02:39:15;0.00;77.10
810;DHT22;387;48.772;9.186;2023-02-26T02:41:48;0.00;77.10
810;DHT22;387;48.772;9.186;2023-02-26T02:44:17;-0.10;77.00
810;DHT22;387;48.772;9.186;2023-02-26T02:46:46;-0.20;77.00
810;DHT22;387;48.772;9.186;2023-02-26T02:49:19;-0.20;77.10
810;DHT22;387;48.772;9.186;2023-02-26T02:54:57;-0.20;77.30
810;DHT22;387;48.772;9.186;2023-02-26T02:57:28;-0.20;77.40
810;DHT22;387;48.772;9.186;2023-02-26T02:59:59;-0.20;77.10
810;DHT22;387;48.772;9.186;2023-02-26T03:02:47;-0.30;77.10
810;DHT22;387;48.772;9.186;2023-02-26T03:05:14;-0.30;77.30
810;DHT22;387;48.772;9.186;2023-02-26T03:07:50;-0.30;77.30
810;DHT22;387;48.772;9.186;2023-02-26T03:10:17;-0.30;77.30
810;DHT22;387;48.772;9.186;2023-02-26T03:12:43;-0.30;77.30
810;DHT22;387;48.772;9.186;2023-02-26T03:15:09;-0.30;77.10
810;DHT22;387;48.772;9.186;2023-02-26T03:17:45;-0.30;77.00
810;DHT22;387;48.772;9.186;2023-02-26T03:20:33;-0.30;77.30
810;DHT22;387;48.772;9.186;2023-02-26T03:23:23;-0.30;77.40
810;DHT22;387;48.772;9.186;2023-02-26T03:25:55;-0.20;77.70
810;DHT22;387;48.772;9.186;2023-02-26T03:28:38;-0.20;77.60
810;DHT22;387;48.772;9.186;2023-02-26T03:31:08;-0.20;77.30
810;DHT22;387;48.772;9.186;2023-02-26T03:34:07;-0.20;77.40
810;DHT22;387;48.772;9.186;2023-02-26T03:39:06;-0.20;77.10
810;DHT22;387;48.772;9.186;2023-02-26T03:41:41;-0.20;77.40
810;DHT22;387;48.772;9.186;2023-02-26T03:44:15;-0.20;77.40
810;DHT22;387;48.772;9.186;2023-02-26T03:46:47;-0.20;77.40
810;DHT22;387;48.772;9.186;2023-02-26T03:49:20;-0.20;77.10
810;DHT22;387;48.772;9.186;2023-02-26T03:51:48;-0.30;77.00
810;DHT22;387;48.772;9.186;2023-02-26T03:54:22;-0.30;77.00
810;DHT22;387;48.772;9.186;2023-02-26T03:56:51;-0.30;77.30
810;DHT22;387;48.772;9.186;2023-02-26T03:59:17;-0.30;77.30
810;DHT22;387;48.772;9.186;2023-02-26T04:01:48;-0.40;77.40
810;DHT22;387;48.772;9.186;2023-02-26T04:04:30;-0.40;77.30
810;DHT22;387;48.772;9.186;2023-02-26T04:06:57;-0.40;77.10
810;DHT22;387;48.772;9.186;2023-02-26T04:09:23;-0.40;77.30
810;DHT22;387;48.772;9.186;2023-02-26T04:11:50;-0.50;77.40
810;DHT22;387;48.772;9.186;2023-02-26T04:14:16;-0.50;77.80
810;DHT22;387;48.772;9.186;2023-02-26T04:16:43;-0.60;78.00
810;DHT22;387;48.772;9.186;2023-02-26T04:19:09;-0.60;78.00
810;DHT22;387;48.772;9.186;2023-02-26T04:21:34;-0.60;78.10
810;DHT22;387;48.772;9.186;2023-02-26T04:24:00;-0.70;78.30
810;DHT22;387;48.772;9.186;2023-02-26T04:26:26;-0.60;78.60
810;DHT22;387;48.772;9.186;2023-02-26T04:28:51;-0.60;78.40
810;DHT22;387;48.772;9.186;2023-02-26T04:31:17;-0.60;78.60
810;DHT22;387;48.772;9.186;2023-02-26T04:33:43;-0.60;78.90
810;DHT22;387;48.772;9.186;2023-02-26T04:36:08;-0.50;79.00
810;DHT22;387;48.772;9.186;2023-02-26T04:38:34;-0.50;79.00
810;DHT22;387;48.772;9.186;2023-02-26T04:41:00;-0.40;79.00
810;DHT22;387;48.772;9.186;2023-02-26T04:43:26;-0.40;79.20
810;DHT22;387;48.772;9.186;2023-02-26T04:45:52;-0.40;78.90
810;DHT22;387;48.772;9.186;2023-02-26T04:48:17;-0.30;78.70
810;DHT22;387;48.772;9.186;2023-02-26T04:50:43;-0.30;78.70
810;DHT22;387;48.772;9.186;2023-02-26T04:53:09;-0.40;78.70
810;DHT22;387;48.772;9.186;2023-02-26T04:55:35;-0.40;78.40
810;DHT22;387;48.772;9.186;2023-02-26T04:58:01;-0.50;78.60
810;DHT22;387;48.772;9.186;2023-02-26T05:00:27;-0.50;78.40
810;DHT22;387;48.772;9.186;2023-02-26T05:02:52;-0.60;78.70
810;DHT22;387;48.772;9.186;2023-02-26T05:05:18;-0.60;78.90
810;DHT22;387;48.772;9.186;2023-02-26T05:07:44;-0.60;78.90
810;DHT22;387;48.772;9.186;2023-02-26T05:10:10;-0.70;78.70
810;DHT22;387;48.772;9.186;2023-02-26T05:12:36;-0.80;79.00
810;DHT22;387;48.772;9.186;2023-02-26T05:15:02;-0.80;79.50
810;DHT22;387;48.772;9.186;2023-02-26T05:17:27;-0.90;79.60
810;DHT22;387;48.772;9.186;2023-02-26T05:19:53;-0.90;79.90
810;DHT22;387;48.772;9.186;2023-02-26T05:22:18;-0.90;79.70
810;DHT22;387;48.772;9.186;2023-02-26T05:24:44;-1.00;79.70
810;DHT22;387;48.772;9.186;2023-02-26T05:27:10;-1.00;79.90
810;DHT22;387;48.772;9.186;2023-02-26T05:29:35;-1.00;80.20
810;DHT22;387;48.772;9.186;2023-02-26T05:32:02;-1.00;80.20
810;DHT22;387;48.772;9.186;2023-02-26T05:34:28;-1.10;80.30
810;DHT22;387;48.772;9.186;2023-02-26T05:36:53;-1.10;80.60
810;DHT22;387;48.772;9.186;2023-02-26T05:39:19;-1.10;80.60
810;DHT22;387;48.772;9.186;2023-02-26T05:41:44;-1.10;81.10
810;DHT22;387;48.772;9.186;2023-02-26T05:44:11;-1.00;81.10
810;DHT22;387;48.772;9.186;2023-02-26T05:46:37;-0.90;80.80
810;DHT22;387;48.772;9.186;2023-02-26T05:49:02;-0.90;80.80
810;DHT22;387;48.772;9.186;2023-02-26T05:51:28;-0.90;80.30
810;DHT22;387;48.772;9.186;2023-02-26T05:53:54;-1.00;79.90
810;DHT22;387;48.772;9.186;2023-02-26T05:56:20;-1.00;80.00
810;DHT22;387;48.772;9.186;2023-02-26T05:58:45;-1.10;80.20
810;DHT22;387;48.772;9.186;2023-02-26T06:01:11;-1.20;80.30
810;DHT22;387;48.772;9.186;2023-02-26T06:03:36;-1.20;80.80
810;DHT22;387;48.772;9.186;2023-02-26T06:06:04;-1.30;80.90
810;DHT22;387;48.772;9.186;2023-02-26T06:08:30;-1.30;81.10
810;DHT22;387;48.772;9.186;2023-02-26T06:10:55;-1.20;81.40
810;DHT22;387;48.772;9.186;2023-02-26T06:13:21;-1.20;81.20
810;DHT22;387;48.772;9.186;2023-02-26T06:15:49;-1.20;81.50
810;DHT22;387;48.772;9.186;2023-02-26T06:18:16;-1.10;81.50
810;DHT22;387;48.772;9.186;2023-02-26T06:20:42;-1.10;81.50
810;DHT22;387;48.772;9.186;2023-02-26T06:23:07;-1.10;81.70
810;DHT22;387;48.772;9.186;2023-02-26T06:25:33;-1.10;81.50
810;DHT22;387;48.772;9.186;2023-02-26T06:27:58;-1.00;81.50
810;DHT22;387;48.772;9.186;2023-02-26T06:30:24;-1.00;81.40
810;DHT22;387;48.772;9.186;2023-02-26T06:32:50;-1.00;81.20
810;DHT22;387;48.772;9.186;2023-02-26T06:35:15;-1.10;81.10
810;DHT22;387;48.772;9.186;2023-02-26T06:37:41;-1.10;81.20
810;DHT22;387;48.772;9.186;2023-02-26T06:40:07;-1.00;81.40
810;DHT22;387;48.772;9.186;2023-02-26T06:42:35;-1.00;81.40
810;DHT22;387;48.772;9.186;2023-02-26T06:45:01;-1.00;80.90
810;DHT22;387;48.772;9.186;2023-02-26T06:47:26;-1.00;80.90
810;DHT22;387;48.772;9.186;2023-02-26T06:49:52;-1.00;80.90
810;DHT22;387;48.772;9.186;2023-02-26T06:52:18;-0.90;80.90
810;DHT22;387;48.772;9.186;2023-02-26T06:54:44;-0.80;80.60
810;DHT22;387;48.772;9.186;2023-02-26T06:57:09;-0.70;80.50
810;DHT22;387;48.772;9.186;2023-02-26T06:59:35;-0.80;80.00
810;DHT22;387;48.772;9.186;2023-02-26T07:02:00;-0.70;80.20
810;DHT22;387;48.772;9.186;2023-02-26T07:04:26;-0.70;80.00
810;DHT22;387;48.772;9.186;2023-02-26T07:06:51;-0.70;79.70
810;DHT22;387;48.772;9.186;2023-02-26T07:09:17;-0.70;79.60
810;DHT22;387;48.772;9.186;2023-02-26T07:11:44;-0.60;80.00
810;DHT22;387;48.772;9.186;2023-02-26T07:14:10;-0.60;79.60
810;DHT22;387;48.772;9.186;2023-02-26T07:16:35;-0.50;79.50
810;DHT22;387;48.772;9.186;2023-02-26T07:19:01;-0.50;79.30
810;DHT22;387;48.772;9.186;2023-02-26T07:21:26;-0.60;79.00
810;DHT22;387;48.772;9.186;2023-02-26T07:23:52;-0.70;79.20
810;DHT22;387;48.772;9.186;2023-02-26T07:26:18;-0.70;79.60
810;DHT22;387;48.772;9.186;2023-02-26T07:28:43;-0.60;80.00
810;DHT22;387;48.772;9.186;2023-02-26T07:31:09;-0.50;79.60
810;DHT22;387;48.772;9.186;2023-02-26T07:33:34;-0.40;79.50
810;DHT22;387;48.772;9.186;2023-02-26T07:36:02;-0.50;78.90
810;DHT22;387;48.772;9.186;2023-02-26T07:38:28;-0.60;79.20
810;DHT22;387;48.772;9.186;2023-02-26T07:40:54;-0.50;79.20
810;DHT22;387;48.772;9.186;2023-02-26T07:43:21;-0.40;79.20
810;DHT22;387;48.772;9.186;2023-02-26T07:45:49;-0.40;78.90
810;DHT22;387;48.772;9.186;2023-02-26T07:48:15;-0.50;79.00
810;DHT22;387;48.772;9.186;2023-02-26T07:50:40;-0.60;79.00
810;DHT22;387;48.772;9.186;2023-02-26T07:53:06;-0.60;79.20
810;DHT22;387;48.772;9.186;2023-02-26T07:55:32;-0.50;79.60
810;DHT22;387;48.772;9.186;2023-02-26T07:57:57;-0.30;79.50
810;DHT22;387;48.772;9.186;2023-02-26T08:00:23;-0.30;79.20
810;DHT22;387;48.772;9.186;2023-02-26T08:02:48;-0.10;79.00
810;DHT22;387;48.772;9.186;2023-02-26T08:05:14;-0.10;78.30
810;DHT22;387;48.772;9.186;2023-02-26T08:07:40;-0.10;78.60
810;DHT22;387;48.772;9.186;2023-02-26T08:10:05;-0.10;79.70
810;DHT22;387;48.772;9.186;2023-02-26T08:12:31;-0.10;80.00
810;DHT22;387;48.772;9.186;2023-02-26T08:14:57;-0.10;80.80
810;DHT22;387;48.772;9.186;2023-02-26T08:17:23;-0.20;80.50
810;DHT22;387;48.772;9.186;2023-02-26T08:19:48;-0.30;80.30
810;DHT22;387;48.772;9.186;2023-02-26T08:22:14;-0.20;80.80
810;DHT22;387;48.772;9.186;2023-02-26T08:24:39;-0.10;81.70
810;DHT22;387;48.772;9.186;2023-02-26T08:27:05;0.10;80.80
810;DHT22;387;48.772;9.186;2023-02-26T08:29:31;0.20;79.90
810;DHT22;387;48.772;9.186;2023-02-26T08:31:56;0.20;79.50
810;DHT22;387;48.772;9.186;2023-02-26T08:34:22;0.20;78.60
810;DHT22;387;48.772;9.186;2023-02-26T08:36:47;0.00;78.00
810;DHT22;387;48.772;9.186;2023-02-26T08:39:14;-0.10;78.30
810;DHT22;387;48.772;9.186;2023-02-26T08:41:40;-0.30;78.30
810;DHT22;387;48.772;9.186;2023-02-26T08:44:05;-0.40;78.90
810;DHT22;387;48.772;9.186;2023-02-26T08:46:32;-0.40;79.30
810;DHT22;387;48.772;9.186;2023-02-26T08:48:58;-0.30;79.50
810;DHT22;387;48.772;9.186;2023-02-26T08:51:24;-0.30;79.50
810;DHT22;387;48.772;9.186;2023-02-26T08:53:49;-0.20;79.60
810;DHT22;387;48.772;9.186;2023-02-26T08:56:16;-0.10;79.30
810;DHT22;387;48.772;9.186;2023-02-26T08:58:42;-0.10;79.20
810;DHT22;387;48.772;9.186;2023-02-26T09:01:08;0.10;79.30
810;DHT22;387;48.772;9.186;2023-02-26T09:03:33;0.20;78.90
810;DHT22;387;48.772;9.186;2023-02-26T09:05:59;0.30;78.40
810;DHT22;387;48.772;9.186;2023-02-26T09:08:25;0.30;78.10
810;DHT22;387;48.772;9.186;2023-02-26T09:10:50;0.40;78.40
810;DHT22;387;48.772;9.186;2023-02-26T09:13:16;0.20;78.10
810;DHT22;387;48.772;9.186;2023-02-26T09:15:42;0.10;78.40
810;DHT22;387;48.772;9.186;2023-02-26T09:18:07;0.30;78.90
810;DHT22;387;48.772;9.186;2023-02-26T09:20:43;0.50;79.30
810;DHT22;387;48.772;9.186;2023-02-26T09:23:09;0.60;78.40
810;DHT22;387;48.772;9.186;2023-02-26T09:25:35;0.50;77.40
810;DHT22;387;48.772;9.186;2023-02-26T09:28:00;0.50;78.00
810;DHT22;387;48.772;9.186;2023-02-26T09:30:26;0.40;78.00
810;DHT22;387;48.772;9.186;2023-02-26T09:32:52;0.50;78.10
810;DHT22;387;48.772;9.186;2023-02-26T09:35:18;0.30;78.30
810;DHT22;387;48.772;9.186;2023-02-26T09:37:43;0.40;78.90
810;DHT22;387;48.772;9.186;2023-02-26T09:45:40;0.50;77.60
810;DHT22;387;48.772;9.186;2023-02-26T09:48:10;0.50;77.60
810;DHT22;387;48.772;9.186;2023-02-26T09:50:43;0.40;77.80
810;DHT22;387;48.772;9.186;2023-02-26T09:53:23;0.40;77.70
810;DHT22;387;48.772;9.186;2023-02-26T09:55:51;0.50;78.40
810;DHT22;387;48.772;9.186;2023-02-26T09:58:31;0.50;77.80
810;DHT22;387;48.772;9.186;2023-02-26T10:07:36;0.80;77.80
810;DHT22;387;48.772;9.186;2023-02-26T10:12:58;0.60;79.50
810;DHT22;387;48.772;9.186;2023-02-26T10:15:34;0.60;79.60
810;DHT22;387;48.772;9.186;2023-02-26T10:18:20;0.70;79.90
810;DHT22;387;48.772;9.186;2023-02-26T10:23:42;0.90;79.00
810;DHT22;387;48.772;9.186;2023-02-26T10:31:50;0.90;78.10
810;DHT22;387;48.772;9.186;2023-02-26T10:37:37;0.80;77.80
810;DHT22;387;48.772;9.186;2023-02-26T10:42:43;0.70;77.80
810;DHT22;387;48.772;9.186;2023-02-26T10:45:39;0.80;77.40
810;DHT22;387;48.772;9.186;2023-02-26T10:51:00;1.00;76.70
810;DHT22;387;48.772;9.186;2023-02-26T10:53:29;1.00;76.70
810;DHT22;387;48.772;9.186;2023-02-26T10:56:10;1.00;76.80
810;DHT22;387;48.772;9.186;2023-02-26T10:58:38;1.00;76.50
810;DHT22;387;48.772;9.186;2023-02-26T11:01:12;1.00;76.40
810;DHT22;387;48.772;9.186;2023-02-26T11:03:41;1.10;76.50
810;DHT22;387;48.772;9.186;2023-02-26T11:06:07;1.10;76.20
810;DHT22;387;48.772;9.186;2023-02-26T11:08:41;1.10;76.50
810;DHT22;387;48.772;9.186;2023-02-26T11:11:07;1.20;76.20
810;DHT22;387;48.772;9.186;2023-02-26T11:13:35;1.20;75.80
810;DHT22;387;48.772;9.186;2023-02-26T11:16:10;1.20;75.50
810;DHT22;387;48.772;9.186;2023-02-26T11:18:47;1.20;75.90
810;DHT22;387;48.772;9.186;2023-02-26T11:21:25;1.10;75.90
810;DHT22;387;48.772;9.186;2023-02-26T11:24:02;1.20;75.90
810;DHT22;387;48.772;9.186;2023-02-26T11:26:35;1.40;75.70
810;DHT22;387;48.772;9.186;2023-02-26T11:29:02;1.60;75.40
810;DHT22;387;48.772;9.186;2023-02-26T11:31:29;1.80;74.90
810;DHT22;387;48.772;9.186;2023-02-26T11:34:07;1.80;74.00
810;DHT22;387;48.772;9.186;2023-02-26T11:36:33;1.60;74.00
810;DHT22;387;48.772;9.186;2023-02-26T11:39:17;1.50;74.60
810;DHT22;387;48.772;9.186;2023-02-26T11:41:45;1.50;74.20
810;DHT22;387;48.772;9.186;2023-02-26T11:44:36;1.50;73.30
810;DHT22;387;48.772;9.186;2023-02-26T11:47:15;1.50;73.60
810;DHT22;387;48.772;9.186;2023-02-26T11:49:44;1.70;73.90
810;DHT22;387;48.772;9.186;2023-02-26T11:54:38;1.70;73.00
810;DHT22;387;48.772;9.186;2023-02-26T11:57:17;1.60;73.00
810;DHT22;387;48.772;9.186;2023-02-26T11:59:50;1.70;73.30
810;DHT22;387;48.772;9.186;2023-02-26T12:02:19;1.80;73.50
810;DHT22;387;48.772;9.186;2023-02-26T12:04:49;1.80;73.70
810;DHT22;387;48.772;9.186;2023-02-26T12:07:17;1.80;73.60
810;DHT22;387;48.772;9.186;2023-02-26T12:09:43;1.60;73.90
810;DHT22;387;48.772;9.186;2023-02-26T12:12:22;1.40;75.50
810;DHT22;387;48.772;9.186;2023-02-26T12:20:43;1.60;76.70
810;DHT22;387;48.772;9.186;2023-02-26T12:26:23;1.60;75.20
810;DHT22;387;48.772;9.186;2023-02-26T12:29:09;1.60;75.20
810;DHT22;387;48.772;9.186;2023-02-26T12:35:21;1.50;75.90
810;DHT22;387;48.772;9.186;2023-02-26T12:46:44;1.50;75.20
810;DHT22;387;48.772;9.186;2023-02-26T12:49:36;1.40;75.50
810;DHT22;387;48.772;9.186;2023-02-26T12:55:17;1.60;75.20
810;DHT22;387;48.772;9.186;2023-02-26T12:57:46;1.90;75.20
810;DHT22;387;48.772;9.186;2023-02-26T13:08:45;1.90;73.90
810;DHT22;387;48.772;9.186;2023-02-26T13:11:18;2.00;74.00
810;DHT22;387;48.772;9.186;2023-02-26T13:14:08;2.10;73.70
810;DHT22;387;48.772;9.186;2023-02-26T13:19:38;2.00;72.40
810;DHT22;387;48.772;9.186;2023-02-26T13:22:18;2.00;72.30
810;DHT22;387;48.772;9.186;2023-02-26T13:24:56;2.00;72.10
810;DHT22;387;48.772;9.186;2023-02-26T13:27:28;2.10;72.60
810;DHT22;387;48.772;9.186;2023-02-26T13:32:37;2.20;71.80
810;DHT22;387;48.772;9.186;2023-02-26T13:35:08;2.30;71.80
810;DHT22;387;48.772;9.186;2023-02-26T13:37:45;2.30;71.60
810;DHT22;387;48.772;9.186;2023-02-26T13:45:58;2.20;69.40
810;DHT22;387;48.772;9.186;2023-02-26T13:48:47;2.20;69.50
810;DHT22;387;48.772;9.186;2023-02-26T14:01:59;2.70;68.50
810;DHT22;387;48.772;9.186;2023-02-26T14:04:32;2.80;68.00
810;DHT22;387;48.772;9.186;2023-02-26T14:07:15;2.90;67.20
810;DHT22;387;48.772;9.186;2023-02-26T14:09:59;2.80;66.10
810;DHT22;387;48.772;9.186;2023-02-26T14:17:49;2.50;68.00
810;DHT22;387;48.772;9.186;2023-02-26T14:20:34;2.40;68.00
810;DHT22;387;48.772;9.186;2023-02-26T14:25:52;2.50;68.50
810;DHT22;387;48.772;9.186;2023-02-26T14:33:30;3.10;66.40
810;DHT22;387;48.772;9.186;2023-02-26T14:35:57;3.10;65.80
810;DHT22;387;48.772;9.186;2023-02-26T14:38:35;3.10;65.60
810;DHT22;387;48.772;9.186;2023-02-26T14:41:04;3.10;65.80
810;DHT22;387;48.772;9.186;2023-02-26T14:43:40;2.90;66.00
810;DHT22;387;48.772;9.186;2023-02-26T14:46:07;2.90;66.70
810;DHT22;387;48.772;9.186;2023-02-26T14:48:34;2.80;66.40
810;DHT22;387;48.772;9.186;2023-02-26T14:53:55;2.90;66.00
810;DHT22;387;48.772;9.186;2023-02-26T14:59:47;3.10;64.10
810;DHT22;387;48.772;9.186;2023-02-26T15:02:32;3.60;61.90
810;DHT22;387;48.772;9.186;2023-02-26T15:08:08;3.70;60.70
810;DHT22;387;48.772;9.186;2023-02-26T15:17:07;3.50;62.60
810;DHT22;387;48.772;9.186;2023-02-26T15:25:37;3.00;63.90
810;DHT22;387;48.772;9.186;2023-02-26T15:28:06;3.00;63.10
810;DHT22;387;48.772;9.186;2023-02-26T15:30:35;2.80;63.40
810;DHT22;387;48.772;9.186;2023-02-26T15:33:04;2.80;63.80
810;DHT22;387;48.772;9.186;2023-02-26T15:35:32;2.80;64.10
810;DHT22;387;48.772;9.186;2023-02-26T15:38:01;2.80;64.40
810;DHT22;387;48.772;9.186;2023-02-26T15:40:30;2.70;65.30
810;DHT22;387;48.772;9.186;2023-02-26T15:42:57;2.70;65.30
810;DHT22;387;48.772;9.186;2023-02-26T15:45:28;2.50;65.80
810;DHT22;387;48.772;9.186;2023-02-26T15:47:59;2.50;66.10
810;DHT22;387;48.772;9.186;2023-02-26T15:50:32;2.70;65.70
810;DHT22;387;48.772;9.186;2023-02-26T15:53:01;3.00;64.80
810;DHT22;387;48.772;9.186;2023-02-26T15:55:30;3.20;63.40
810;DHT22;387;48.772;9.186;2023-02-26T15:57:57;3.30;62.30
810;DHT22;387;48.772;9.186;2023-02-26T16:00:23;3.40;61.90
810;DHT22;387;48.772;9.186;2023-02-26T16:02:53;3.40;61.20
810;DHT22;387;48.772;9.186;2023-02-26T16:05:22;3.30;60.90
810;DHT22;387;48.772;9.186;2023-02-26T16:07:47;3.10;60.70
810;DHT22;387;48.772;9.186;2023-02-26T16:12:53;2.80;59.70
810;DHT22;387;48.772;9.186;2023-02-26T16:15:39;2.60;59.60
810;DHT22;387;48.772;9.186;2023-02-26T16:18:11;2.40;59.60
810;DHT22;387;48.772;9.186;2023-02-26T16:20:42;2.40;60.10
810;DHT22;387;48.772;9.186;2023-02-26T16:23:14;2.30;59.90
810;DHT22;387;48.772;9.186;2023-02-26T16:25:54;2.20;59.60
810;DHT22;387;48.772;9.186;2023-02-26T16:28:27;2.20;59.90
810;DHT22;387;48.772;9.186;2023-02-26T16:30:56;2.20;60.10
810;DHT22;387;48.772;9.186;2023-02-26T16:33:24;2.20;60.30
810;DHT22;387;48.772;9.186;2023-02-26T16:36:04;2.20;60.70
810;DHT22;387;48.772;9.186;2023-02-26T16:38:48;2.20;60.90
810;DHT22;387;48.772;9.186;2023-02-26T16:41:15;2.20;61.20
810;DHT22;387;48.772;9.186;2023-02-26T16:46:13;2.10;61.50
810;DHT22;387;48.772;9.186;2023-02-26T16:48:52;2.20;61.30
810;DHT22;387;48.772;9.186;2023-02-26T16:51:22;2.10;60.40
810;DHT22;387;48.772;9.186;2023-02-26T16:53:58;2.00;60.30
810;DHT22;387;48.772;9.186;2023-02-26T16:56:33;2.00;60.00
810;DHT22;387;48.772;9.186;2023-02-26T16:59:16;2.00;60.10
810;DHT22;387;48.772;9.186;2023-02-26T17:01:58;1.90;60.00
810;DHT22;387;48.772;9.186;2023-02-26T17:04:34;2.00;60.10
810;DHT22;387;48.772;9.186;2023-02-26T17:07:01;2.00;59.90
810;DHT22;387;48.772;9.186;2023-02-26T17:09:38;1.90;59.90
810;DHT22;387;48.772;9.186;2023-02-26T17:12:10;1.90;60.00
810;DHT22;387;48.772;9.186;2023-02-26T17:14:39;1.90;60.30
810;DHT22;387;48.772;9.186;2023-02-26T17:17:06;1.90;60.40
810;DHT22;387;48.772;9.186;2023-02-26T17:19:32;1.90;60.30
810;DHT22;387;48.772;9.186;2023-02-26T17:21:58;1.80;60.30
810;DHT22;387;48.772;9.186;2023-02-26T17:24:32;1.90;60.30
810;DHT22;387;48.772;9.186;2023-02-26T17:27:00;1.80;60.30
810;DHT22;387;48.772;9.186;2023-02-26T17:29:32;1.80;60.10
810;DHT22;387;48.772;9.186;2023-02-26T17:31:57;1.80;60.70
810;DHT22;387;48.772;9.186;2023-02-26T17:34:23;1.80;60.90
810;DHT22;387;48.772;9.186;2023-02-26T17:36:49;1.80;60.90
810;DHT22;387;48.772;9.186;2023-02-26T17:39:14;1.80;61.20
810;DHT22;387;48.772;9.186;2023-02-26T17:41:44;1.80;61.20
810;DHT22;387;48.772;9.186;2023-02-26T17:44:09;1.80;61.30
810;DHT22;387;48.772;9.186;2023-02-26T17:46:35;1.80;61.60
810;DHT22;387;48.772;9.186;2023-02-26T17:49:01;1.70;61.90
810;DHT22;387;48.772;9.186;2023-02-26T17:51:26;1.70;62.60
810;DHT22;387;48.772;9.186;2023-02-26T17:53:52;1.70;62.90
810;DHT22;387;48.772;9.186;2023-02-26T17:56:24;1.70;63.20
810;DHT22;387;48.772;9.186;2023-02-26T17:58:51;1.60;63.50
810;DHT22;387;48.772;9.186;2023-02-26T18:01:17;1.50;64.20
810;DHT22;387;48.772;9.186;2023-02-26T18:03:43;1.40;64.70
810;DHT22;387;48.772;9.186;2023-02-26T18:06:10;1.40;65.00
810;DHT22;387;48.772;9.186;2023-02-26T18:08:37;1.50;65.30
810;DHT22;387;48.772;9.186;2023-02-26T18:11:05;1.40;65.30
810;DHT22;387;48.772;9.186;2023-02-26T18:13:31;1.30;65.10
810;DHT22;387;48.772;9.186;2023-02-26T18:15:57;1.30;64.80
810;DHT22;387;48.772;9.186;2023-02-26T18:18:24;1.20;64.80
810;DHT22;387;48.772;9.186;2023-02-26T18:20:50;1.20;64.50
810;DHT22;387;48.772;9.186;2023-02-26T18:23:17;1.20;64.70
810;DHT22;387;48.772;9.186;2023-02-26T18:25:47;1.20;64.80
810;DHT22;387;48.772;9.186;2023-02-26T18:28:22;1.20;64.70
810;DHT22;387;48.772;9.186;2023-02-26T18:30:48;1.10;64.80
810;DHT22;387;48.772;9.186;2023-02-26T18:33:14;1.20;64.80
810;DHT22;387;48.772;9.186;2023-02-26T18:35:42;1.10;64.80
810;DHT22;387;48.772;9.186;2023-02-26T18:38:15;1.10;64.70
810;DHT22;387;48.772;9.186;2023-02-26T18:40:41;1.10;64.80
810;DHT22;387;48.772;9.186;2023-02-26T18:43:07;1.10;64.70
810;DHT22;387;48.772;9.186;2023-02-26T18:45:40;1.00;64.20
810;DHT22;387;48.772;9.186;2023-02-26T18:48:06;1.00;64.40
810;DHT22;387;48.772;9.186;2023-02-26T18:50:32;0.90;64.40
810;DHT22;387;48.772;9.186;2023-02-26T18:52:58;1.00;64.80
810;DHT22;387;48.772;9.186;2023-02-26T18:55:23;0.90;64.40
810;DHT22;387;48.772;9.186;2023-02-26T18:57:49;1.00;65.00
810;DHT22;387;48.772;9.186;2023-02-26T19:00:15;0.90;64.80
810;DHT22;387;48.772;9.186;2023-02-26T19:02:42;0.90;65.00
810;DHT22;387;48.772;9.186;2023-02-26T19:05:10;0.80;65.00
810;DHT22;387;48.772;9.186;2023-02-26T19:07:36;0.80;65.30
810;DHT22;387;48.772;9.186;2023-02-26T19:10:03;0.80;65.60
810;DHT22;387;48.772;9.186;2023-02-26T19:12:29;0.80;65.70
810;DHT22;387;48.772;9.186;2023-02-26T19:14:55;0.80;65.60
810;DHT22;387;48.772;9.186;2023-02-26T19:17:20;0.90;65.60
810;DHT22;387;48.772;9.186;2023-02-26T19:19:46;0.80;65.40
810;DHT22;387;48.772;9.186;2023-02-26T19:22:12;0.80;65.70
810;DHT22;387;48.772;9.186;2023-02-26T19:24:40;0.80;65.80
810;DHT22;387;48.772;9.186;2023-02-26T19:27:06;0.70;65.80
810;DHT22;387;48.772;9.186;2023-02-26T19:29:32;0.70;66.10
810;DHT22;387;48.772;9.186;2023-02-26T19:31:59;0.60;66.30
810;DHT22;387;48.772;9.186;2023-02-26T19:34:24;0.60;66.40
810;DHT22;387;48.772;9.186;2023-02-26T19:36:50;0.60;66.70
810;DHT22;387;48.772;9.186;2023-02-26T19:39:17;0.50;66.90
810;DHT22;387;48.772;9.186;2023-02-26T19:41:44;0.50;67.00